sensor_id;sensor_type;location;lat;lon;timestamp;pressure;altitude;pressure_sealevel;temperature;humidity
28008;BME280;15333;50.010;20.020;2022-08-19T00:00:44;98303.00;;;19.38;100.00
28008;BME280;15333;50.010;20.020;2022-08-19T00:03:45;98307.94;;;19.35;100.00
28008;BME280;15333;50.010;20.020;2022-08-19T00:06:47;98313.75;;;19.32;100.00
28008;BME280;15333;50.010;20.020;2022-08-19T00:09:48;98309.41;;;19.23;100.00
28008;BME280;15333;50.010;20.020;2022-08-19T00:12:49;98309.19;;;19.09;100.00
28008;BME280;15333;50.010;20.020;2022-08-19T00:15:50;98302.47;;;18.97;100.00
28008;BME280;15333;50.010;20.020;2022-08-19T00:18:52;98306.28;;;18.88;100.00
28008;BME280;15333;50.010;20.020;2022-08-19T00:21:53;98308.03;;;18.81;100.00
28008;BME280;15333;50.010;20.020;2022-08-19T00:24:56;98305.72;;;18.70;100.00
28008;BME280;15333;50.010;20.020;2022-08-19T00:27:57;98306.13;;;18.59;100.00
28008;BME280;15333;50.010;20.020;2022-08-19T00:30:59;98302.41;;;18.52;100.00
28008;BME280;15333;50.010;20.020;2022-08-19T00:34:00;98305.84;;;18.46;100.00
28008;BME280;15333;50.010;20.020;2022-08-19T00:37:01;98297.38;;;18.40;100.00
28008;BME280;15333;50.010;20.020;2022-08-19T00:40:05;98300.75;;;18.43;100.00
28008;BME280;15333;50.010;20.020;2022-08-19T00:43:11;98299.78;;;18.35;100.00
28008;BME280;15333;50.010;20.020;2022-08-19T00:46:13;98301.34;;;18.30;100.00
28008;BME280;15333;50.010;20.020;2022-08-19T00:49:21;98298.13;;;18.26;100.00
28008;BME280;15333;50.010;20.020;2022-08-19T00:52:28;98293.38;;;18.28;100.00
28008;BME280;15333;50.010;20.020;2022-08-19T00:55:32;98298.81;;;18.28;100.00
28008;BME280;15333;50.010;20.020;2022-08-19T00:58:34;98292.91;;;18.25;100.00
28008;BME280;15333;50.010;20.020;2022-08-19T01:01:40;98285.28;;;18.20;100.00
28008;BME280;15333;50.010;20.020;2022-08-19T01:04:42;98280.91;;;18.19;100.00
28008;BME280;15333;50.010;20.020;2022-08-19T01:07:44;98286.50;;;18.18;100.00
28008;BME280;15333;50.010;20.020;2022-08-19T01:10:48;98276.88;;;18.15;100.00
28008;BME280;15333;50.010;20.020;2022-08-19T01:13:52;98286.00;;;18.14;100.00
28008;BME280;15333;50.010;20.020;2022-08-19T01:16:55;98284.31;;;18.13;100.00
28008;BME280;15333;50.010;20.020;2022-08-19T01:19:57;98267.34;;;18.19;100.00
28008;BME280;15333;50.010;20.020;2022-08-19T01:22:58;98265.19;;;18.46;100.00
28008;BME280;15333;50.010;20.020;2022-08-19T01:25:59;98264.88;;;18.40;100.00
28008;BME280;15333;50.010;20.020;2022-08-19T01:29:01;98272.34;;;18.38;100.00
28008;BME280;15333;50.010;20.020;2022-08-19T01:32:02;98264.97;;;18.24;100.00
28008;BME280;15333;50.010;20.020;2022-08-19T01:35:04;98262.47;;;18.15;100.00
28008;BME280;15333;50.010;20.020;2022-08-19T01:38:09;98255.53;;;18.12;100.00
28008;BME280;15333;50.010;20.020;2022-08-19T01:41:11;98250.34;;;18.03;100.00
28008;BME280;15333;50.010;20.020;2022-08-19T01:44:12;98251.72;;;17.90;100.00
28008;BME280;15333;50.010;20.020;2022-08-19T01:47:13;98252.94;;;17.88;100.00
28008;BME280;15333;50.010;20.020;2022-08-19T01:50:14;98254.63;;;17.89;100.00
28008;BME280;15333;50.010;20.020;2022-08-19T01:53:16;98261.94;;;17.80;100.00
28008;BME280;15333;50.010;20.020;2022-08-19T01:56:18;98266.38;;;17.73;100.00
28008;BME280;15333;50.010;20.020;2022-08-19T01:59:21;98263.50;;;17.75;100.00
28008;BME280;15333;50.010;20.020;2022-08-19T02:02:24;98257.41;;;17.65;100.00
28008;BME280;15333;50.010;20.020;2022-08-19T02:05:25;98261.13;;;17.64;100.00
28008;BME280;15333;50.010;20.020;2022-08-19T02:08:27;98257.91;;;17.60;100.00
28008;BME280;15333;50.010;20.020;2022-08-19T02:11:32;98259.09;;;17.66;100.00
28008;BME280;15333;50.010;20.020;2022-08-19T02:14:35;98261.56;;;17.83;100.00
28008;BME280;15333;50.010;20.020;2022-08-19T02:17:36;98260.59;;;17.76;100.00
28008;BME280;15333;50.010;20.020;2022-08-19T02:20:39;98249.28;;;17.73;100.00
28008;BME280;15333;50.010;20.020;2022-08-19T02:23:40;98253.84;;;17.72;100.00
28008;BME280;15333;50.010;20.020;2022-08-19T02:26:41;98237.25;;;17.75;100.00
28008;BME280;15333;50.010;20.020;2022-08-19T02:29:43;98242.16;;;17.72;100.00
28008;BME280;15333;50.010;20.020;2022-08-19T02:32:43;98240.47;;;17.71;100.00
28008;BME280;15333;50.010;20.020;2022-08-19T02:35:45;98242.88;;;17.66;100.00
28008;BME280;15333;50.010;20.020;2022-08-19T02:38:46;98242.84;;;17.57;100.00
28008;BME280;15333;50.010;20.020;2022-08-19T02:41:48;98245.59;;;17.49;100.00
28008;BME280;15333;50.010;20.020;2022-08-19T02:44:50;98252.38;;;17.45;100.00
28008;BME280;15333;50.010;20.020;2022-08-19T02:47:52;98247.44;;;17.49;100.00
28008;BME280;15333;50.010;20.020;2022-08-19T02:50:53;98237.13;;;17.52;100.00
28008;BME280;15333;50.010;20.020;2022-08-19T02:53:56;98239.53;;;17.47;100.00
28008;BME280;15333;50.010;20.020;2022-08-19T02:56:57;98239.69;;;17.46;100.00
28008;BME280;15333;50.010;20.020;2022-08-19T02:59:59;98243.09;;;17.40;100.00
28008;BME280;15333;50.010;20.020;2022-08-19T03:03:00;98246.28;;;17.35;100.00
28008;BME280;15333;50.010;20.020;2022-08-19T03:06:08;98256.94;;;17.45;100.00
28008;BME280;15333;50.010;20.020;2022-08-19T03:09:09;98263.50;;;17.50;100.00
28008;BME280;15333;50.010;20.020;2022-08-19T03:12:11;98261.50;;;17.44;100.00
28008;BME280;15333;50.010;20.020;2022-08-19T03:15:11;98261.81;;;17.41;100.00
28008;BME280;15333;50.010;20.020;2022-08-19T03:18:14;98266.75;;;17.46;100.00
28008;BME280;15333;50.010;20.020;2022-08-19T03:21:17;98272.63;;;17.57;100.00
28008;BME280;15333;50.010;20.020;2022-08-19T03:24:19;98267.75;;;17.53;100.00
28008;BME280;15333;50.010;20.020;2022-08-19T03:27:20;98263.50;;;17.58;100.00
28008;BME280;15333;50.010;20.020;2022-08-19T03:30:21;98271.75;;;17.81;100.00
28008;BME280;15333;50.010;20.020;2022-08-19T03:33:23;98264.09;;;17.93;100.00
28008;BME280;15333;50.010;20.020;2022-08-19T03:36:26;98260.09;;;17.81;100.00
28008;BME280;15333;50.010;20.020;2022-08-19T03:39:27;98270.50;;;17.92;100.00
28008;BME280;15333;50.010;20.020;2022-08-19T03:42:28;98271.88;;;17.96;100.00
28008;BME280;15333;50.010;20.020;2022-08-19T03:45:30;98269.16;;;17.96;100.00
28008;BME280;15333;50.010;20.020;2022-08-19T03:48:31;98272.50;;;18.06;100.00
28008;BME280;15333;50.010;20.020;2022-08-19T03:51:38;98276.91;;;17.99;100.00
28008;BME280;15333;50.010;20.020;2022-08-19T03:54:39;98277.94;;;17.98;100.00
28008;BME280;15333;50.010;20.020;2022-08-19T03:57:39;98282.97;;;18.09;100.00
28008;BME280;15333;50.010;20.020;2022-08-19T04:00:42;98277.13;;;18.28;100.00
28008;BME280;15333;50.010;20.020;2022-08-19T04:03:44;98273.63;;;18.59;100.00
28008;BME280;15333;50.010;20.020;2022-08-19T04:06:47;98278.22;;;18.81;100.00
28008;BME280;15333;50.010;20.020;2022-08-19T04:09:48;98271.09;;;18.80;100.00
28008;BME280;15333;50.010;20.020;2022-08-19T04:12:49;98270.03;;;18.89;100.00
28008;BME280;15333;50.010;20.020;2022-08-19T04:15:50;98265.28;;;18.83;100.00
28008;BME280;15333;50.010;20.020;2022-08-19T04:18:51;98263.03;;;18.95;100.00
28008;BME280;15333;50.010;20.020;2022-08-19T04:21:53;98274.94;;;19.08;100.00
28008;BME280;15333;50.010;20.020;2022-08-19T04:24:54;98278.16;;;19.27;100.00
28008;BME280;15333;50.010;20.020;2022-08-19T04:27:55;98280.56;;;19.44;100.00
28008;BME280;15333;50.010;20.020;2022-08-19T04:30:56;98280.88;;;19.64;100.00
28008;BME280;15333;50.010;20.020;2022-08-19T04:33:59;98274.53;;;19.86;99.12
28008;BME280;15333;50.010;20.020;2022-08-19T04:37:00;98266.22;;;19.88;98.27
28008;BME280;15333;50.010;20.020;2022-08-19T04:40:02;98276.13;;;20.10;98.62
28008;BME280;15333;50.010;20.020;2022-08-19T04:43:21;98277.72;;;20.34;97.10
28008;BME280;15333;50.010;20.020;2022-08-19T04:46:22;98268.63;;;21.20;91.99
28008;BME280;15333;50.010;20.020;2022-08-19T04:49:23;98284.09;;;21.69;88.91
28008;BME280;15333;50.010;20.020;2022-08-19T04:52:24;98284.56;;;22.54;82.55
28008;BME280;15333;50.010;20.020;2022-08-19T04:55:25;98285.06;;;22.71;80.62
28008;BME280;15333;50.010;20.020;2022-08-19T04:58:27;98293.13;;;22.99;79.62
28008;BME280;15333;50.010;20.020;2022-08-19T05:01:29;98305.78;;;23.13;78.70
28008;BME280;15333;50.010;20.020;2022-08-19T05:04:31;98309.84;;;23.50;76.96
28008;BME280;15333;50.010;20.020;2022-08-19T05:07:33;98304.53;;;23.88;74.83
28008;BME280;15333;50.010;20.020;2022-08-19T05:10:38;98315.09;;;23.65;74.99
28008;BME280;15333;50.010;20.020;2022-08-19T05:13:41;98316.63;;;22.80;79.49
28008;BME280;15333;50.010;20.020;2022-08-19T05:16:43;98314.22;;;23.91;74.09
28008;BME280;15333;50.010;20.020;2022-08-19T05:19:44;98309.63;;;23.58;75.95
28008;BME280;15333;50.010;20.020;2022-08-19T05:23:03;98310.81;;;24.02;73.97
28008;BME280;15333;50.010;20.020;2022-08-19T05:26:04;98318.03;;;23.63;75.45
28008;BME280;15333;50.010;20.020;2022-08-19T05:29:06;98317.16;;;23.83;74.42
28008;BME280;15333;50.010;20.020;2022-08-19T05:32:08;98314.75;;;24.96;71.03
28008;BME280;15333;50.010;20.020;2022-08-19T05:35:11;98328.06;;;24.93;69.23
28008;BME280;15333;50.010;20.020;2022-08-19T05:38:12;98327.00;;;22.63;79.32
28008;BME280;15333;50.010;20.020;2022-08-19T05:41:14;98327.81;;;22.57;80.81
28008;BME280;15333;50.010;20.020;2022-08-19T05:44:16;98321.91;;;22.47;81.80
28008;BME280;15333;50.010;20.020;2022-08-19T05:47:18;98329.47;;;22.99;79.36
28008;BME280;15333;50.010;20.020;2022-08-19T05:50:22;98328.19;;;22.48;81.60
28008;BME280;15333;50.010;20.020;2022-08-19T05:53:23;98326.50;;;22.47;81.86
28008;BME280;15333;50.010;20.020;2022-08-19T05:56:24;98320.22;;;22.46;82.43
28008;BME280;15333;50.010;20.020;2022-08-19T05:59:25;98313.50;;;22.49;81.95
28008;BME280;15333;50.010;20.020;2022-08-19T06:02:27;98329.19;;;22.40;82.68
28008;BME280;15333;50.010;20.020;2022-08-19T06:05:29;98330.56;;;22.57;81.96
28008;BME280;15333;50.010;20.020;2022-08-19T06:08:31;98323.50;;;22.76;81.04
28008;BME280;15333;50.010;20.020;2022-08-19T06:11:38;98328.41;;;22.87;81.09
28008;BME280;15333;50.010;20.020;2022-08-19T06:14:40;98328.63;;;22.92;80.84
28008;BME280;15333;50.010;20.020;2022-08-19T06:17:42;98319.59;;;22.98;80.90
28008;BME280;15333;50.010;20.020;2022-08-19T06:20:45;98318.38;;;23.08;79.84
28008;BME280;15333;50.010;20.020;2022-08-19T06:23:46;98320.00;;;22.95;81.19
28008;BME280;15333;50.010;20.020;2022-08-19T06:26:48;98327.44;;;23.34;79.87
28008;BME280;15333;50.010;20.020;2022-08-19T06:29:49;98332.94;;;23.54;78.71
28008;BME280;15333;50.010;20.020;2022-08-19T06:32:50;98326.84;;;23.72;78.31
28008;BME280;15333;50.010;20.020;2022-08-19T06:35:51;98334.41;;;23.76;77.63
28008;BME280;15333;50.010;20.020;2022-08-19T06:38:56;98328.94;;;23.63;79.26
28008;BME280;15333;50.010;20.020;2022-08-19T06:42:00;98331.41;;;24.11;76.85
28008;BME280;15333;50.010;20.020;2022-08-19T06:45:05;98331.03;;;24.21;76.53
28008;BME280;15333;50.010;20.020;2022-08-19T06:48:08;98333.91;;;24.39;74.66
28008;BME280;15333;50.010;20.020;2022-08-19T06:51:09;98335.19;;;24.36;74.92
28008;BME280;15333;50.010;20.020;2022-08-19T06:54:10;98341.81;;;24.67;74.07
28008;BME280;15333;50.010;20.020;2022-08-19T06:57:11;98343.63;;;24.86;73.17
28008;BME280;15333;50.010;20.020;2022-08-19T07:00:15;98346.69;;;25.09;72.36
28008;BME280;15333;50.010;20.020;2022-08-19T07:03:16;98349.69;;;25.01;73.21
28008;BME280;15333;50.010;20.020;2022-08-19T07:06:19;98355.09;;;25.14;71.46
28008;BME280;15333;50.010;20.020;2022-08-19T07:09:21;98364.56;;;25.18;71.46
28008;BME280;15333;50.010;20.020;2022-08-19T07:12:22;98364.31;;;25.58;70.36
28008;BME280;15333;50.010;20.020;2022-08-19T07:15:23;98371.22;;;24.91;73.80
28008;BME280;15333;50.010;20.020;2022-08-19T07:18:24;98368.91;;;24.81;74.15
28008;BME280;15333;50.010;20.020;2022-08-19T07:21:29;98364.56;;;25.50;72.17
28008;BME280;15333;50.010;20.020;2022-08-19T07:24:30;98355.00;;;25.90;69.60
28008;BME280;15333;50.010;20.020;2022-08-19T07:27:31;98356.41;;;25.99;68.79
28008;BME280;15333;50.010;20.020;2022-08-19T07:30:32;98358.03;;;25.82;68.66
28008;BME280;15333;50.010;20.020;2022-08-19T07:33:33;98365.41;;;26.06;68.65
28008;BME280;15333;50.010;20.020;2022-08-19T07:36:38;98364.66;;;26.18;68.88
28008;BME280;15333;50.010;20.020;2022-08-19T07:39:41;98362.56;;;26.38;68.13
28008;BME280;15333;50.010;20.020;2022-08-19T07:42:41;98357.63;;;26.28;68.60
28008;BME280;15333;50.010;20.020;2022-08-19T07:45:43;98357.50;;;26.41;68.30
28008;BME280;15333;50.010;20.020;2022-08-19T07:48:44;98366.78;;;26.40;68.13
28008;BME280;15333;50.010;20.020;2022-08-19T07:51:55;98366.56;;;26.60;66.92
28008;BME280;15333;50.010;20.020;2022-08-19T07:54:56;98369.53;;;26.59;67.35
28008;BME280;15333;50.010;20.020;2022-08-19T07:58:01;98374.03;;;26.71;67.13
28008;BME280;15333;50.010;20.020;2022-08-19T08:01:03;98375.50;;;26.92;65.79
28008;BME280;15333;50.010;20.020;2022-08-19T08:04:06;98385.00;;;27.08;65.45
28008;BME280;15333;50.010;20.020;2022-08-19T08:07:25;98384.38;;;27.24;65.31
28008;BME280;15333;50.010;20.020;2022-08-19T08:10:45;98384.84;;;27.21;66.32
28008;BME280;15333;50.010;20.020;2022-08-19T08:13:46;98387.50;;;27.57;65.44
28008;BME280;15333;50.010;20.020;2022-08-19T08:16:49;98388.75;;;27.73;64.96
28008;BME280;15333;50.010;20.020;2022-08-19T08:19:51;98393.03;;;27.39;65.12
28008;BME280;15333;50.010;20.020;2022-08-19T08:22:52;98392.69;;;27.65;64.57
28008;BME280;15333;50.010;20.020;2022-08-19T08:26:11;98390.81;;;27.78;64.08
28008;BME280;15333;50.010;20.020;2022-08-19T08:29:14;98394.03;;;27.86;63.54
28008;BME280;15333;50.010;20.020;2022-08-19T08:32:16;98388.06;;;27.89;63.28
28008;BME280;15333;50.010;20.020;2022-08-19T08:35:20;98391.94;;;28.12;62.38
28008;BME280;15333;50.010;20.020;2022-08-19T08:38:21;98395.69;;;28.17;61.92
28008;BME280;15333;50.010;20.020;2022-08-19T08:41:59;98391.16;;;28.34;62.00
28008;BME280;15333;50.010;20.020;2022-08-19T08:45:05;98388.97;;;28.60;61.65
28008;BME280;15333;50.010;20.020;2022-08-19T08:48:18;98387.16;;;28.65;61.26
28008;BME280;15333;50.010;20.020;2022-08-19T08:51:29;98392.66;;;28.65;61.57
28008;BME280;15333;50.010;20.020;2022-08-19T08:54:38;98392.53;;;28.72;60.79
28008;BME280;15333;50.010;20.020;2022-08-19T08:57:49;98382.63;;;28.83;60.50
28008;BME280;15333;50.010;20.020;2022-08-19T09:00:55;98384.28;;;28.72;61.07
28008;BME280;15333;50.010;20.020;2022-08-19T09:03:56;98380.84;;;28.76;61.48
28008;BME280;15333;50.010;20.020;2022-08-19T09:10:56;98381.06;;;28.63;60.93
28008;BME280;15333;50.010;20.020;2022-08-19T09:14:02;98376.00;;;28.72;60.90
28008;BME280;15333;50.010;20.020;2022-08-19T09:17:06;98382.69;;;28.99;60.08
28008;BME280;15333;50.010;20.020;2022-08-19T09:20:14;98381.88;;;28.99;59.76
28008;BME280;15333;50.010;20.020;2022-08-19T09:23:16;98380.63;;;29.06;59.89
28008;BME280;15333;50.010;20.020;2022-08-19T09:26:20;98381.72;;;29.05;59.53
28008;BME280;15333;50.010;20.020;2022-08-19T09:29:21;98382.13;;;29.26;59.11
28008;BME280;15333;50.010;20.020;2022-08-19T09:32:23;98370.19;;;29.08;59.64
28008;BME280;15333;50.010;20.020;2022-08-19T09:35:27;98368.06;;;29.39;58.49
28008;BME280;15333;50.010;20.020;2022-08-19T09:38:29;98360.28;;;29.36;58.21
28008;BME280;15333;50.010;20.020;2022-08-19T09:41:30;98363.91;;;29.25;58.24
28008;BME280;15333;50.010;20.020;2022-08-19T09:44:31;98371.09;;;29.26;58.49
28008;BME280;15333;50.010;20.020;2022-08-19T09:47:34;98369.50;;;29.41;58.70
28008;BME280;15333;50.010;20.020;2022-08-19T09:50:38;98362.88;;;29.42;58.46
28008;BME280;15333;50.010;20.020;2022-08-19T09:53:39;98349.13;;;29.59;59.14
28008;BME280;15333;50.010;20.020;2022-08-19T09:56:40;98353.66;;;29.65;58.27
28008;BME280;15333;50.010;20.020;2022-08-19T09:59:41;98352.16;;;29.74;57.55
28008;BME280;15333;50.010;20.020;2022-08-19T10:02:43;98344.84;;;29.96;57.15
28008;BME280;15333;50.010;20.020;2022-08-19T10:05:44;98338.81;;;30.16;57.00
28008;BME280;15333;50.010;20.020;2022-08-19T10:08:51;98343.41;;;30.11;56.74
28008;BME280;15333;50.010;20.020;2022-08-19T10:11:52;98341.22;;;30.13;56.50
28008;BME280;15333;50.010;20.020;2022-08-19T10:14:53;98343.66;;;30.09;54.50
28008;BME280;15333;50.010;20.020;2022-08-19T10:17:55;98346.00;;;30.17;54.62
28008;BME280;15333;50.010;20.020;2022-08-19T10:21:18;98345.16;;;30.17;53.74
28008;BME280;15333;50.010;20.020;2022-08-19T10:24:19;98337.59;;;30.29;54.45
28008;BME280;15333;50.010;20.020;2022-08-19T10:27:21;98329.91;;;30.31;53.30
28008;BME280;15333;50.010;20.020;2022-08-19T10:30:22;98329.31;;;30.29;52.67
28008;BME280;15333;50.010;20.020;2022-08-19T10:33:23;98332.91;;;30.46;52.09
28008;BME280;15333;50.010;20.020;2022-08-19T10:36:31;98320.84;;;30.52;52.25
28008;BME280;15333;50.010;20.020;2022-08-19T10:39:34;98338.63;;;30.23;50.74
28008;BME280;15333;50.010;20.020;2022-08-19T10:42:35;98332.75;;;30.36;51.55
28008;BME280;15333;50.010;20.020;2022-08-19T10:45:36;98339.94;;;30.37;50.39
28008;BME280;15333;50.010;20.020;2022-08-19T10:48:37;98340.00;;;30.59;50.95
28008;BME280;15333;50.010;20.020;2022-08-19T10:51:39;98344.31;;;30.71;50.59
28008;BME280;15333;50.010;20.020;2022-08-19T10:55:04;98340.72;;;30.71;49.84
28008;BME280;15333;50.010;20.020;2022-08-19T10:58:24;98338.19;;;30.69;49.77
28008;BME280;15333;50.010;20.020;2022-08-19T11:01:26;98339.47;;;30.84;50.54
28008;BME280;15333;50.010;20.020;2022-08-19T11:04:28;98339.81;;;30.87;49.93
28008;BME280;15333;50.010;20.020;2022-08-19T11:07:29;98342.91;;;31.12;50.45
28008;BME280;15333;50.010;20.020;2022-08-19T11:10:30;98335.81;;;31.22;49.07
28008;BME280;15333;50.010;20.020;2022-08-19T11:13:39;98328.06;;;31.45;48.94
28008;BME280;15333;50.010;20.020;2022-08-19T11:16:41;98328.66;;;31.47;47.01
28008;BME280;15333;50.010;20.020;2022-08-19T11:19:42;98320.38;;;31.52;47.27
28008;BME280;15333;50.010;20.020;2022-08-19T11:22:43;98325.97;;;31.58;48.28
28008;BME280;15333;50.010;20.020;2022-08-19T11:25:44;98309.94;;;31.60;47.50
28008;BME280;15333;50.010;20.020;2022-08-19T11:28:46;98313.00;;;31.31;49.85
28008;BME280;15333;50.010;20.020;2022-08-19T11:31:48;98313.41;;;31.45;49.27
28008;BME280;15333;50.010;20.020;2022-08-19T11:34:50;98305.47;;;31.54;49.03
28008;BME280;15333;50.010;20.020;2022-08-19T11:37:51;98304.63;;;31.53;49.64
28008;BME280;15333;50.010;20.020;2022-08-19T11:40:59;98299.50;;;31.62;49.67
28008;BME280;15333;50.010;20.020;2022-08-19T11:44:00;98302.25;;;31.62;48.69
28008;BME280;15333;50.010;20.020;2022-08-19T11:47:04;98301.81;;;31.75;48.80
28008;BME280;15333;50.010;20.020;2022-08-19T11:50:05;98292.09;;;31.72;49.93
28008;BME280;15333;50.010;20.020;2022-08-19T11:53:06;98298.97;;;31.70;49.89
28008;BME280;15333;50.010;20.020;2022-08-19T11:56:08;98293.94;;;31.62;50.19
28008;BME280;15333;50.010;20.020;2022-08-19T11:59:10;98303.38;;;31.66;50.56
28008;BME280;15333;50.010;20.020;2022-08-19T12:02:11;98292.28;;;31.61;50.80
28008;BME280;15333;50.010;20.020;2022-08-19T12:05:11;98304.56;;;31.75;51.02
28008;BME280;15333;50.010;20.020;2022-08-19T12:08:13;98310.19;;;31.85;49.35
28008;BME280;15333;50.010;20.020;2022-08-19T12:11:15;98306.53;;;32.11;49.04
28008;BME280;15333;50.010;20.020;2022-08-19T12:14:16;98316.09;;;31.99;47.30
28008;BME280;15333;50.010;20.020;2022-08-19T12:17:17;98310.84;;;31.97;45.60
28008;BME280;15333;50.010;20.020;2022-08-19T12:20:18;98304.94;;;32.20;47.35
28008;BME280;15333;50.010;20.020;2022-08-19T12:23:19;98303.25;;;32.19;46.80
28008;BME280;15333;50.010;20.020;2022-08-19T12:26:19;98296.88;;;32.19;45.61
28008;BME280;15333;50.010;20.020;2022-08-19T12:29:21;98302.91;;;32.11;45.36
28008;BME280;15333;50.010;20.020;2022-08-19T12:32:22;98298.25;;;32.16;45.00
28008;BME280;15333;50.010;20.020;2022-08-19T12:35:25;98305.47;;;32.17;45.13
28008;BME280;15333;50.010;20.020;2022-08-19T12:38:25;98308.25;;;32.17;44.97
28008;BME280;15333;50.010;20.020;2022-08-19T12:41:27;98298.75;;;32.13;45.30
28008;BME280;15333;50.010;20.020;2022-08-19T12:44:28;98297.63;;;32.09;45.42
28008;BME280;15333;50.010;20.020;2022-08-19T12:47:30;98291.50;;;32.02;45.40
28008;BME280;15333;50.010;20.020;2022-08-19T12:50:31;98294.84;;;32.04;46.21
28008;BME280;15333;50.010;20.020;2022-08-19T12:53:32;98286.56;;;32.09;45.38
28008;BME280;15333;50.010;20.020;2022-08-19T12:56:33;98275.97;;;32.01;45.84
28008;BME280;15333;50.010;20.020;2022-08-19T12:59:36;98279.97;;;32.15;45.28
28008;BME280;15333;50.010;20.020;2022-08-19T13:02:38;98276.69;;;32.18;45.40
28008;BME280;15333;50.010;20.020;2022-08-19T13:05:39;98279.50;;;32.28;45.31
28008;BME280;15333;50.010;20.020;2022-08-19T13:08:40;98279.84;;;32.42;44.49
28008;BME280;15333;50.010;20.020;2022-08-19T13:11:42;98288.13;;;32.32;44.32
28008;BME280;15333;50.010;20.020;2022-08-19T13:14:43;98288.38;;;32.25;41.12
28008;BME280;15333;50.010;20.020;2022-08-19T13:17:48;98280.16;;;32.46;41.62
28008;BME280;15333;50.010;20.020;2022-08-19T13:20:49;98277.41;;;32.51;42.42
28008;BME280;15333;50.010;20.020;2022-08-19T13:23:51;98278.00;;;32.58;40.65
28008;BME280;15333;50.010;20.020;2022-08-19T13:26:52;98275.81;;;32.65;39.00
28008;BME280;15333;50.010;20.020;2022-08-19T13:29:53;98277.91;;;32.43;40.14
28008;BME280;15333;50.010;20.020;2022-08-19T13:33:13;98267.44;;;32.55;39.95
28008;BME280;15333;50.010;20.020;2022-08-19T13:36:17;98265.13;;;32.37;41.53
28008;BME280;15333;50.010;20.020;2022-08-19T13:39:18;98264.66;;;32.50;41.26
28008;BME280;15333;50.010;20.020;2022-08-19T13:42:19;98267.22;;;32.66;42.20
28008;BME280;15333;50.010;20.020;2022-08-19T13:45:23;98269.41;;;32.64;43.78
28008;BME280;15333;50.010;20.020;2022-08-19T13:48:25;98259.19;;;32.65;42.30
28008;BME280;15333;50.010;20.020;2022-08-19T13:51:27;98257.53;;;32.69;41.55
28008;BME280;15333;50.010;20.020;2022-08-19T13:54:28;98258.03;;;32.56;39.40
28008;BME280;15333;50.010;20.020;2022-08-19T13:57:28;98255.50;;;32.49;41.04
28008;BME280;15333;50.010;20.020;2022-08-19T14:00:35;98256.31;;;32.45;42.65
28008;BME280;15333;50.010;20.020;2022-08-19T14:03:36;98249.69;;;32.56;42.26
28008;BME280;15333;50.010;20.020;2022-08-19T14:06:37;98241.63;;;32.44;41.35
28008;BME280;15333;50.010;20.020;2022-08-19T14:09:38;98241.38;;;32.51;42.48
28008;BME280;15333;50.010;20.020;2022-08-19T14:12:39;98244.22;;;32.61;42.43
28008;BME280;15333;50.010;20.020;2022-08-19T14:15:40;98246.34;;;32.49;42.79
28008;BME280;15333;50.010;20.020;2022-08-19T14:18:41;98238.34;;;32.57;42.46
28008;BME280;15333;50.010;20.020;2022-08-19T14:21:42;98241.97;;;32.63;42.57
28008;BME280;15333;50.010;20.020;2022-08-19T14:24:43;98233.66;;;32.63;42.59
28008;BME280;15333;50.010;20.020;2022-08-19T14:27:44;98222.81;;;32.51;40.47
28008;BME280;15333;50.010;20.020;2022-08-19T14:30:46;98227.00;;;32.64;39.40
28008;BME280;15333;50.010;20.020;2022-08-19T14:33:47;98223.66;;;32.62;39.87
28008;BME280;15333;50.010;20.020;2022-08-19T14:36:48;98228.94;;;32.53;40.57
28008;BME280;15333;50.010;20.020;2022-08-19T14:39:49;98228.63;;;32.45;40.88
28008;BME280;15333;50.010;20.020;2022-08-19T14:42:50;98222.50;;;32.48;40.75
28008;BME280;15333;50.010;20.020;2022-08-19T14:45:51;98229.78;;;32.59;42.05
28008;BME280;15333;50.010;20.020;2022-08-19T14:48:53;98233.91;;;32.61;41.95
28008;BME280;15333;50.010;20.020;2022-08-19T14:51:54;98230.06;;;32.62;40.94
28008;BME280;15333;50.010;20.020;2022-08-19T14:54:55;98233.59;;;32.48;41.78
28008;BME280;15333;50.010;20.020;2022-08-19T14:57:56;98224.59;;;32.15;42.00
28008;BME280;15333;50.010;20.020;2022-08-19T15:00:58;98235.81;;;31.99;40.93
28008;BME280;15333;50.010;20.020;2022-08-19T15:04:00;98234.13;;;31.98;41.14
28008;BME280;15333;50.010;20.020;2022-08-19T15:07:01;98229.38;;;31.88;41.20
28008;BME280;15333;50.010;20.020;2022-08-19T15:10:06;98222.09;;;31.77;41.84
28008;BME280;15333;50.010;20.020;2022-08-19T15:13:07;98215.44;;;31.73;42.01
28008;BME280;15333;50.010;20.020;2022-08-19T15:16:08;98209.56;;;31.69;42.73
28008;BME280;15333;50.010;20.020;2022-08-19T15:19:09;98197.00;;;31.57;43.44
28008;BME280;15333;50.010;20.020;2022-08-19T15:22:10;98190.09;;;31.54;43.05
28008;BME280;15333;50.010;20.020;2022-08-19T15:25:13;98179.88;;;31.55;42.68
28008;BME280;15333;50.010;20.020;2022-08-19T15:28:14;98188.19;;;31.60;42.24
28008;BME280;15333;50.010;20.020;2022-08-19T15:31:19;98188.81;;;31.67;42.73
28008;BME280;15333;50.010;20.020;2022-08-19T15:34:23;98185.47;;;31.65;43.40
28008;BME280;15333;50.010;20.020;2022-08-19T15:37:25;98185.81;;;31.68;43.89
28008;BME280;15333;50.010;20.020;2022-08-19T15:40:26;98189.34;;;31.64;44.10
28008;BME280;15333;50.010;20.020;2022-08-19T15:43:27;98191.00;;;31.65;44.50
28008;BME280;15333;50.010;20.020;2022-08-19T15:46:31;98177.13;;;31.60;44.48
28008;BME280;15333;50.010;20.020;2022-08-19T15:49:33;98177.13;;;31.60;44.54
28008;BME280;15333;50.010;20.020;2022-08-19T15:52:33;98175.44;;;31.59;45.19
28008;BME280;15333;50.010;20.020;2022-08-19T15:55:41;98170.56;;;31.66;45.00